createdAt,value
2023-01-15T00:00:54.800Z,11.90
2023-01-15T00:03:23.168Z,11.95
2023-01-15T00:05:56.043Z,12.27
2023-01-15T00:08:26.090Z,10.95
2023-01-15T00:10:58.459Z,11.27
2023-01-15T00:13:41.587Z,11.05
2023-01-15T00:16:14.979Z,11.75
2023-01-15T00:18:45.551Z,11.20
2023-01-15T00:21:16.781Z,10.57
2023-01-15T00:24:06.161Z,11.38
2023-01-15T00:26:52.652Z,11.00
2023-01-15T00:29:25.312Z,10.50
2023-01-15T00:32:07.063Z,10.30
2023-01-15T00:34:44.116Z,11.55
2023-01-15T00:37:16.724Z,9.73
2023-01-15T00:39:46.594Z,10.68
2023-01-15T00:42:16.175Z,11.15
2023-01-15T00:44:46.910Z,11.23
2023-01-15T00:47:16.501Z,10.25
2023-01-15T00:49:52.906Z,11.05
2023-01-15T00:52:22.674Z,10.45
2023-01-15T00:54:51.076Z,11.27
2023-01-15T00:57:19.492Z,11.00
2023-01-15T01:00:15.388Z,10.25
2023-01-15T01:02:51.204Z,11.45
2023-01-15T01:05:26.142Z,10.57
2023-01-15T01:08:04.714Z,11.23
2023-01-15T01:10:38.081Z,10.95
2023-01-15T01:13:06.520Z,10.98
2023-01-15T01:15:35.750Z,11.80
2023-01-15T01:18:04.781Z,11.93
2023-01-15T01:20:43.133Z,11.45
2023-01-15T01:23:21.920Z,10.43
2023-01-15T01:25:50.315Z,11.93
2023-01-15T01:28:22.478Z,10.52
2023-01-15T01:30:50.745Z,10.88
2023-01-15T01:33:27.769Z,10.77
2023-01-15T01:36:09.652Z,10.88
2023-01-15T01:38:39.556Z,10.35
2023-01-15T01:41:07.997Z,10.07
2023-01-15T01:43:54.944Z,9.95
2023-01-15T01:46:23.451Z,10.32
2023-01-15T01:48:54.969Z,11.13
2023-01-15T01:51:28.422Z,9.73
2023-01-15T01:53:59.453Z,9.65
2023-01-15T01:56:37.474Z,9.80
2023-01-15T01:59:08.800Z,10.10
2023-01-15T02:01:40.481Z,9.82
2023-01-15T02:04:12.906Z,9.98
2023-01-15T02:06:43.788Z,9.13
2023-01-15T02:09:13.809Z,9.60
2023-01-15T02:11:42.107Z,10.80
2023-01-15T02:14:24.308Z,9.13
2023-01-15T02:16:57.713Z,9.10
2023-01-15T02:19:47.532Z,9.77
2023-01-15T02:22:28.268Z,10.00
2023-01-15T02:25:15.822Z,10.05
2023-01-15T02:27:54.521Z,8.80
2023-01-15T02:30:29.745Z,9.55
2023-01-15T02:33:31.701Z,8.35
2023-01-15T02:36:06.756Z,9.68
2023-01-15T02:38:41.516Z,9.30
2023-01-15T02:41:16.739Z,9.27
2023-01-15T02:44:25.410Z,9.38
2023-01-15T02:47:14.078Z,8.27
2023-01-15T02:49:43.704Z,9.57
2023-01-15T02:52:23.323Z,8.98
2023-01-15T02:55:02.141Z,8.77
2023-01-15T02:57:35.342Z,9.50
2023-01-15T03:00:17.576Z,7.75
2023-01-15T03:03:03.822Z,7.93
2023-01-15T03:05:37.754Z,8.65
2023-01-15T03:11:13.613Z,8.23
2023-01-15T03:13:53.296Z,8.40
2023-01-15T03:16:40.703Z,8.32
2023-01-15T03:19:27.101Z,8.40
2023-01-15T03:22:10.021Z,8.82
2023-01-15T03:24:47.265Z,8.05
2023-01-15T03:27:19.418Z,8.55
2023-01-15T03:29:58.289Z,7.95
2023-01-15T03:32:28.312Z,7.45
2023-01-15T03:34:58.615Z,7.85
2023-01-15T03:37:31.670Z,8.55
2023-01-15T03:40:01.632Z,7.35
2023-01-15T03:42:48.436Z,8.20
2023-01-15T03:45:21.404Z,8.00
2023-01-15T03:48:00.405Z,8.85
2023-01-15T03:50:33.736Z,7.60
2023-01-15T03:53:12.737Z,8.15
2023-01-15T03:55:55.776Z,8.27
2023-01-15T03:58:51.335Z,7.72
2023-01-15T04:01:36.808Z,8.68
2023-01-15T04:04:16.610Z,7.78
2023-01-15T04:06:46.753Z,8.15
2023-01-15T04:09:21.254Z,8.52
2023-01-15T04:11:52.940Z,8.63
2023-01-15T04:14:24.867Z,8.60
2023-01-15T04:16:55.931Z,8.88
2023-01-15T04:19:27.638Z,8.32
2023-01-15T04:22:05.622Z,8.00
2023-01-15T04:24:58.941Z,8.23
2023-01-15T04:27:34.833Z,8.70
2023-01-15T04:30:08.394Z,8.52
2023-01-15T04:32:39.866Z,7.28
2023-01-15T04:35:25.127Z,8.32
2023-01-15T04:38:00.540Z,7.85
2023-01-15T04:40:46.452Z,8.55
2023-01-15T04:43:35.320Z,8.45
2023-01-15T04:46:10.403Z,8.07
2023-01-15T04:48:40.270Z,8.43
2023-01-15T04:51:18.097Z,8.05
2023-01-15T04:53:46.665Z,9.07
2023-01-15T04:56:15.415Z,8.10
2023-01-15T04:58:44.931Z,7.88
2023-01-15T05:01:20.424Z,8.70
2023-01-15T05:03:58.402Z,9.18
2023-01-15T05:06:36.690Z,8.02
2023-01-15T05:09:06.505Z,7.85
2023-01-15T05:11:37.685Z,7.40
2023-01-15T05:14:22.899Z,7.40
2023-01-15T05:16:55.697Z,7.53
2023-01-15T05:19:27.159Z,7.53
2023-01-15T05:21:57.036Z,6.95
2023-01-15T05:24:25.225Z,7.18
2023-01-15T05:26:53.813Z,6.13
2023-01-15T05:29:25.052Z,6.97
2023-01-15T05:31:53.407Z,7.18
2023-01-15T05:34:22.946Z,7.30
2023-01-15T05:36:58.278Z,6.55
2023-01-15T05:39:28.128Z,6.82
2023-01-15T05:41:56.440Z,6.90
2023-01-15T05:44:44.363Z,7.85
2023-01-15T05:47:12.735Z,7.32
2023-01-15T05:49:43.523Z,5.75
2023-01-15T05:52:11.887Z,6.75
2023-01-15T05:54:44.729Z,5.82
2023-01-15T05:57:14.114Z,6.07
2023-01-15T05:59:47.478Z,6.25
2023-01-15T06:02:26.282Z,5.85
2023-01-15T06:05:08.756Z,5.85
2023-01-15T06:07:37.086Z,6.10
2023-01-15T06:10:08.438Z,6.22
2023-01-15T06:12:36.872Z,6.22
2023-01-15T06:15:05.693Z,5.40
2023-01-15T06:17:40.192Z,5.90
2023-01-15T06:20:09.980Z,5.50
2023-01-15T06:22:39.019Z,5.60
2023-01-15T06:25:09.544Z,5.28
2023-01-15T06:27:37.903Z,5.10
2023-01-15T06:30:08.520Z,6.28
2023-01-15T06:32:37.289Z,6.30
2023-01-15T06:35:06.223Z,5.93
2023-01-15T06:37:38.510Z,5.47
2023-01-15T06:40:13.690Z,5.20
2023-01-15T06:42:59.966Z,5.63
2023-01-15T06:45:56.419Z,5.22
2023-01-15T06:48:27.813Z,5.70
2023-01-15T06:50:56.252Z,5.47
2023-01-15T06:53:24.860Z,5.38
2023-01-15T06:55:54.565Z,5.38
2023-01-15T06:58:23.441Z,4.70
2023-01-15T07:00:56.063Z,5.50
2023-01-15T07:03:24.892Z,4.95
2023-01-15T07:05:53.141Z,5.05
2023-01-15T07:08:21.465Z,5.07
2023-01-15T07:10:49.818Z,3.83
2023-01-15T07:13:19.488Z,5.00
2023-01-15T07:15:47.751Z,4.53
2023-01-15T07:18:15.979Z,4.72
2023-01-15T07:20:44.213Z,4.38
2023-01-15T07:23:12.988Z,5.38
2023-01-15T07:25:41.222Z,5.30
2023-01-15T07:28:17.398Z,4.25
2023-01-15T07:30:47.742Z,3.97
2023-01-15T07:33:16.173Z,4.35
2023-01-15T07:35:44.738Z,3.97
2023-01-15T07:38:13.173Z,4.57
2023-01-15T07:40:43.608Z,4.90
2023-01-15T07:43:29.865Z,5.22
2023-01-15T07:46:16.847Z,4.85
2023-01-15T07:49:02.268Z,4.35
2023-01-15T07:51:33.581Z,4.60
2023-01-15T07:54:02.139Z,5.20
2023-01-15T07:56:36.641Z,4.65
2023-01-15T07:59:17.073Z,4.55
2023-01-15T08:01:47.007Z,3.90
2023-01-15T08:04:15.519Z,5.32
2023-01-15T08:06:44.078Z,4.50
2023-01-15T08:09:12.427Z,4.30
2023-01-15T08:15:04.481Z,4.82
2023-01-15T08:17:50.469Z,4.97
2023-01-15T08:20:23.853Z,4.38
2023-01-15T08:22:52.414Z,4.60
2023-01-15T08:25:27.440Z,5.43
2023-01-15T08:27:56.693Z,4.45
2023-01-15T08:30:33.999Z,4.80
2023-01-15T08:33:03.814Z,5.47
2023-01-15T08:35:34.304Z,4.50
2023-01-15T08:38:05.761Z,4.57
2023-01-15T08:43:51.170Z,4.63
2023-01-15T08:46:19.862Z,4.85
2023-01-15T08:48:49.647Z,4.85
2023-01-15T08:51:17.930Z,4.40
2023-01-15T08:53:46.320Z,5.70
2023-01-15T08:56:15.869Z,5.30
2023-01-15T08:58:44.702Z,6.22
2023-01-15T09:01:16.347Z,5.32
2023-01-15T09:03:45.061Z,5.47
2023-01-15T09:06:15.293Z,5.70
2023-01-15T09:08:43.606Z,4.88
2023-01-15T09:11:13.258Z,4.93
2023-01-15T09:13:44.236Z,4.38
2023-01-15T09:16:12.943Z,5.90
2023-01-15T09:18:49.665Z,5.15
2023-01-15T09:21:34.379Z,5.00
2023-01-15T09:24:03.242Z,5.63
2023-01-15T09:26:33.850Z,4.88
2023-01-15T09:29:02.692Z,4.53
2023-01-15T09:31:34.139Z,4.40
2023-01-15T09:34:02.731Z,5.07
2023-01-15T09:36:33.514Z,4.78
2023-01-15T09:39:05.931Z,4.72
2023-01-15T09:42:19.044Z,5.50
2023-01-15T09:45:17.146Z,4.00
2023-01-15T09:48:01.808Z,4.88
2023-01-15T09:50:41.436Z,4.97
2023-01-15T09:53:27.486Z,5.70
2023-01-15T09:55:58.709Z,4.80
2023-01-15T09:58:33.207Z,5.30
2023-01-15T10:01:01.878Z,4.88
2023-01-15T10:03:35.859Z,5.50
2023-01-15T10:06:12.652Z,4.93
2023-01-15T10:08:45.515Z,4.72
2023-01-15T10:11:50.582Z,5.55
2023-01-15T10:14:39.492Z,5.38
2023-01-15T10:17:20.400Z,5.15
2023-01-15T10:19:48.806Z,4.90
2023-01-15T10:22:29.021Z,4.97
2023-01-15T10:24:58.812Z,5.28
2023-01-15T10:27:33.210Z,5.40
2023-01-15T10:30:06.559Z,5.93
2023-01-15T10:33:00.714Z,5.68
2023-01-15T10:35:37.594Z,6.15
2023-01-15T10:38:14.989Z,6.10
2023-01-15T10:41:01.040Z,5.28
2023-01-15T10:43:43.476Z,6.32
2023-01-15T10:46:14.965Z,5.63
2023-01-15T10:48:46.857Z,6.18
2023-01-15T10:51:18.851Z,5.68
2023-01-15T10:53:51.128Z,6.32
2023-01-15T10:56:29.652Z,5.80
2023-01-15T10:59:08.652Z,5.60
2023-01-15T11:01:37.790Z,5.20
2023-01-15T11:04:06.846Z,6.05
2023-01-15T11:06:35.155Z,5.05
2023-01-15T11:09:09.823Z,6.22
2023-01-15T11:11:57.907Z,5.30
2023-01-15T11:14:53.863Z,5.88
2023-01-15T11:17:41.310Z,5.90
2023-01-15T11:20:26.685Z,5.72
2023-01-15T11:22:56.139Z,5.65
2023-01-15T11:25:30.258Z,5.30
2023-01-15T11:27:59.789Z,5.70
2023-01-15T11:30:32.304Z,4.95
2023-01-15T11:33:04.087Z,4.95
2023-01-15T11:35:33.539Z,5.57
2023-01-15T11:38:06.479Z,5.38
2023-01-15T11:40:35.455Z,5.53
2023-01-15T11:43:20.987Z,5.65
2023-01-15T11:46:09.349Z,6.10
2023-01-15T11:49:03.180Z,5.65
2023-01-15T11:51:34.484Z,6.10
2023-01-15T11:54:05.907Z,5.45
2023-01-15T11:56:36.419Z,5.45
2023-01-15T11:59:11.360Z,5.82
2023-01-15T12:01:50.378Z,6.05
2023-01-15T12:04:30.581Z,4.97
2023-01-15T12:06:59.400Z,5.88
2023-01-15T12:09:42.501Z,6.28
2023-01-15T12:12:20.798Z,5.40
2023-01-15T12:15:07.895Z,5.88
2023-01-15T12:17:53.517Z,5.10
2023-01-15T12:20:28.465Z,6.15
2023-01-15T12:23:15.583Z,5.45
2023-01-15T12:25:55.345Z,5.85
2023-01-15T12:28:28.090Z,5.88
2023-01-15T12:31:01.763Z,6.03
2023-01-15T12:33:46.111Z,5.68
2023-01-15T12:36:20.375Z,5.95
2023-01-15T12:38:55.423Z,6.50
2023-01-15T12:41:47.981Z,5.80
2023-01-15T12:44:38.571Z,6.18
2023-01-15T12:47:15.887Z,5.95
2023-01-15T12:49:49.749Z,5.75
2023-01-15T12:52:24.483Z,6.13
2023-01-15T12:54:59.370Z,6.15
2023-01-15T12:57:35.944Z,5.78
2023-01-15T13:00:13.685Z,6.38
2023-01-15T13:02:54.771Z,6.00
2023-01-15T13:05:30.781Z,6.00
2023-01-15T13:08:11.918Z,5.95
2023-01-15T13:10:41.984Z,6.07
2023-01-15T13:13:17.915Z,6.40
2023-01-15T13:16:02.468Z,5.88
2023-01-15T13:18:37.939Z,5.55
2023-01-15T13:21:15.019Z,5.78
2023-01-15T13:23:58.867Z,6.32
2023-01-15T13:26:52.947Z,6.10
2023-01-15T13:29:31.639Z,6.20
2023-01-15T13:32:02.949Z,5.93
2023-01-15T13:34:39.624Z,6.53
2023-01-15T13:37:20.265Z,6.13
2023-01-15T13:39:54.615Z,6.10
2023-01-15T13:42:35.180Z,6.53
2023-01-15T13:45:27.891Z,6.47
2023-01-15T13:47:59.343Z,6.88
2023-01-15T13:50:35.804Z,5.68
2023-01-15T13:53:09.272Z,6.20
2023-01-15T13:55:41.304Z,6.15
2023-01-15T13:58:23.436Z,5.85
2023-01-15T14:01:03.521Z,7.15
2023-01-15T14:03:33.705Z,6.57
2023-01-15T14:06:04.225Z,6.50
2023-01-15T14:08:41.881Z,6.47
2023-01-15T14:11:39.778Z,6.70
2023-01-15T14:14:38.155Z,6.80
2023-01-15T14:17:39.140Z,6.50
2023-01-15T14:20:37.661Z,7.10
2023-01-15T14:23:17.655Z,6.32
2023-01-15T14:26:06.433Z,6.55
2023-01-15T14:29:01.867Z,6.75
2023-01-15T14:31:58.620Z,6.97
2023-01-15T14:34:30.350Z,6.80
2023-01-15T14:37:01.533Z,6.82
2023-01-15T14:39:39.947Z,7.10
2023-01-15T14:42:32.215Z,7.25
2023-01-15T14:45:04.285Z,7.82
2023-01-15T14:47:37.186Z,7.65
2023-01-15T14:50:27.879Z,8.07
2023-01-15T14:53:05.867Z,7.63
2023-01-15T14:55:35.248Z,7.82
2023-01-15T14:58:11.880Z,7.63
2023-01-15T15:00:44.032Z,7.63
2023-01-15T15:03:19.038Z,8.23
2023-01-15T15:05:48.972Z,9.05
2023-01-15T15:08:19.844Z,8.55
2023-01-15T15:10:54.839Z,8.32
2023-01-15T15:13:31.997Z,8.32
2023-01-15T15:16:08.817Z,7.40
2023-01-15T15:18:42.634Z,7.47
2023-01-15T15:21:17.494Z,7.78
2023-01-15T15:23:54.450Z,7.25
2023-01-15T15:26:27.099Z,7.38
2023-01-15T15:29:01.428Z,7.43
2023-01-15T15:31:33.576Z,7.68
2023-01-15T15:34:03.569Z,7.35
2023-01-15T15:36:34.232Z,6.28
2023-01-15T15:39:14.881Z,6.68
2023-01-15T15:42:16.004Z,7.38
2023-01-15T15:45:08.845Z,7.20
2023-01-15T15:47:57.459Z,7.35
2023-01-15T15:50:27.647Z,6.55
2023-01-15T15:52:57.532Z,7.13
2023-01-15T15:55:38.570Z,7.90
2023-01-15T15:58:07.996Z,8.20
2023-01-15T16:00:43.265Z,7.10
2023-01-15T16:03:21.584Z,7.13
2023-01-15T16:06:05.751Z,9.90
2023-01-15T16:08:35.743Z,7.20
2023-01-15T16:11:07.617Z,6.97
2023-01-15T16:13:39.521Z,8.27
2023-01-15T16:16:10.887Z,7.22
2023-01-15T16:18:48.154Z,7.05
2023-01-15T16:21:20.407Z,6.97
2023-01-15T16:23:57.618Z,8.05
2023-01-15T16:26:34.213Z,7.45
2023-01-15T16:29:07.039Z,7.22
2023-01-15T16:31:39.261Z,7.20
2023-01-15T16:34:07.708Z,6.93
2023-01-15T16:36:41.260Z,6.95
2023-01-15T16:39:22.418Z,7.97
2023-01-15T16:41:52.688Z,8.07
2023-01-15T16:44:44.149Z,7.28
2023-01-15T16:47:24.212Z,8.23
2023-01-15T16:49:52.523Z,7.40
2023-01-15T16:52:48.665Z,7.25
2023-01-15T16:55:36.601Z,7.32
2023-01-15T16:58:17.463Z,7.20
2023-01-15T17:00:48.144Z,7.05
2023-01-15T17:03:20.643Z,7.95
2023-01-15T17:05:50.697Z,7.88
2023-01-15T17:08:21.708Z,8.13
2023-01-15T17:10:54.961Z,7.45
2023-01-15T17:13:25.960Z,8.32
2023-01-15T17:16:07.181Z,8.23
2023-01-15T17:18:37.238Z,7.55
2023-01-15T17:21:06.200Z,7.78
2023-01-15T17:23:43.022Z,9.32
2023-01-15T17:26:17.495Z,8.27
2023-01-15T17:28:46.071Z,7.93
2023-01-15T17:31:25.904Z,10.00
2023-01-15T17:33:56.413Z,10.18
2023-01-15T17:36:25.713Z,9.55
2023-01-15T17:38:54.017Z,9.07
2023-01-15T17:41:23.895Z,8.75
2023-01-15T17:43:52.763Z,9.68
2023-01-15T17:46:21.066Z,9.00
2023-01-15T17:48:49.271Z,10.25
2023-01-15T17:51:18.930Z,10.38
2023-01-15T17:53:47.123Z,9.50
2023-01-15T17:56:32.501Z,10.55
2023-01-15T17:59:18.429Z,10.30
2023-01-15T18:02:05.978Z,10.15
2023-01-15T18:04:58.247Z,11.00
2023-01-15T18:07:33.779Z,10.95
2023-01-15T18:10:03.026Z,10.77
2023-01-15T18:12:32.421Z,11.40
2023-01-15T18:15:00.770Z,10.90
2023-01-15T18:17:31.830Z,11.00
2023-01-15T18:20:00.185Z,10.90
2023-01-15T18:22:30.346Z,12.02
2023-01-15T18:24:58.613Z,12.32
2023-01-15T18:27:30.187Z,11.20
2023-01-15T18:29:59.294Z,11.00
2023-01-15T18:32:30.202Z,11.98
2023-01-15T18:34:58.732Z,11.45
2023-01-15T18:37:27.102Z,11.30
2023-01-15T18:39:57.095Z,13.35
2023-01-15T18:42:43.023Z,9.77
2023-01-15T18:45:32.292Z,9.07
2023-01-15T18:48:02.324Z,8.13
2023-01-15T18:50:30.927Z,7.88
2023-01-15T18:52:59.248Z,8.63
2023-01-15T18:55:28.999Z,7.75
2023-01-15T18:57:58.106Z,5.97
2023-01-15T19:00:26.614Z,4.85
2023-01-15T19:02:54.974Z,5.00
2023-01-15T19:05:28.191Z,6.15
2023-01-15T19:07:56.956Z,5.57
2023-01-15T19:10:25.292Z,4.85
2023-01-15T19:12:55.441Z,5.60
2023-01-15T19:15:41.298Z,5.70
2023-01-15T19:18:30.449Z,5.22
2023-01-15T19:20:59.314Z,5.78
2023-01-15T19:23:29.960Z,5.80
2023-01-15T19:25:59.509Z,5.63
2023-01-15T19:28:31.524Z,5.80
2023-01-15T19:31:17.070Z,5.55
2023-01-15T19:33:45.420Z,6.05
2023-01-15T19:36:13.848Z,6.97
2023-01-15T19:38:43.834Z,7.05
2023-01-15T19:41:29.938Z,7.25
2023-01-15T19:44:25.319Z,7.40
2023-01-15T19:47:11.065Z,7.47
2023-01-15T19:49:57.890Z,6.47
2023-01-15T19:52:46.127Z,5.90
2023-01-15T19:55:15.205Z,6.35
2023-01-15T19:57:45.463Z,6.55
2023-01-15T20:00:43.807Z,6.07
2023-01-15T20:03:14.616Z,6.13
2023-01-15T20:05:44.489Z,5.88
2023-01-15T20:08:15.347Z,6.40
2023-01-15T20:10:45.779Z,6.07
2023-01-15T20:13:35.816Z,6.15
2023-01-15T20:16:09.111Z,6.28
2023-01-15T20:18:55.681Z,6.28
2023-01-15T20:21:24.033Z,6.57
2023-01-15T20:23:52.772Z,6.53
2023-01-15T20:26:24.407Z,6.88
2023-01-15T20:28:52.721Z,6.13
2023-01-15T20:31:21.225Z,6.95
2023-01-15T20:33:50.405Z,6.63
2023-01-15T20:36:20.502Z,7.70
2023-01-15T20:38:48.963Z,6.93
2023-01-15T20:41:34.527Z,7.18
2023-01-15T20:44:20.119Z,6.20
2023-01-15T20:46:48.494Z,7.55
2023-01-15T20:49:29.022Z,7.05
2023-01-15T20:52:03.487Z,7.38
2023-01-15T20:54:31.708Z,7.13
2023-01-15T20:57:00.229Z,7.55
2023-01-15T20:59:28.567Z,7.78
2023-01-15T21:01:57.027Z,7.95
2023-01-15T21:04:25.450Z,7.35
2023-01-15T21:06:53.899Z,7.57
2023-01-15T21:09:23.724Z,6.93
2023-01-15T21:11:52.316Z,7.97
2023-01-15T21:14:20.798Z,8.20
2023-01-15T21:16:51.345Z,8.75
2023-01-15T21:19:22.380Z,9.20
2023-01-15T21:21:50.792Z,7.88
2023-01-15T21:24:19.479Z,8.25
2023-01-15T21:26:49.506Z,7.85
2023-01-15T21:29:18.135Z,8.18
2023-01-15T21:31:46.998Z,7.68
2023-01-15T21:34:15.922Z,7.82
2023-01-15T21:36:44.299Z,7.40
2023-01-15T21:39:13.539Z,7.85
2023-01-15T21:42:00.160Z,9.15
2023-01-15T21:44:33.015Z,8.65
2023-01-15T21:47:03.288Z,7.22
2023-01-15T21:49:33.446Z,7.65
2023-01-15T21:52:02.844Z,7.57
2023-01-15T21:54:32.169Z,8.82
2023-01-15T21:57:00.903Z,7.85
2023-01-15T21:59:30.979Z,7.72
2023-01-15T22:02:01.055Z,7.60
2023-01-15T22:04:31.396Z,8.15
2023-01-15T22:06:59.818Z,8.73
2023-01-15T22:09:28.433Z,8.50
2023-01-15T22:11:56.857Z,8.15
2023-01-15T22:14:27.410Z,7.70
2023-01-15T22:16:58.421Z,8.23
2023-01-15T22:19:29.481Z,7.50
2023-01-15T22:22:00.101Z,6.93
2023-01-15T22:24:29.615Z,7.22
2023-01-15T22:26:58.128Z,7.45
2023-01-15T22:29:28.947Z,6.68
2023-01-15T22:31:58.968Z,6.97
2023-01-15T22:34:29.280Z,7.90
2023-01-15T22:36:57.583Z,8.20
2023-01-15T22:39:26.967Z,7.68
2023-01-15T22:42:12.881Z,8.13
2023-01-15T22:44:43.419Z,8.57
2023-01-15T22:47:13.847Z,7.60
2023-01-15T22:49:42.213Z,7.75
2023-01-15T22:52:10.560Z,7.22
2023-01-15T22:54:38.975Z,7.30
2023-01-15T22:57:07.248Z,7.80
2023-01-15T22:59:35.496Z,7.68
2023-01-15T23:02:03.985Z,7.60
2023-01-15T23:04:33.915Z,7.03
2023-01-15T23:07:02.606Z,8.05
2023-01-15T23:09:31.241Z,7.35
2023-01-15T23:11:59.475Z,8.65
2023-01-15T23:14:27.845Z,6.70
2023-01-15T23:16:56.169Z,6.85
2023-01-15T23:19:25.005Z,7.00
2023-01-15T23:21:54.842Z,7.15
2023-01-15T23:24:23.227Z,8.30
2023-01-15T23:26:51.472Z,7.97
2023-01-15T23:29:19.712Z,7.85
2023-01-15T23:31:48.079Z,6.85
2023-01-15T23:34:16.501Z,7.55
2023-01-15T23:36:44.763Z,7.30
2023-01-15T23:39:14.491Z,8.43
2023-01-15T23:42:00.050Z,7.30
2023-01-15T23:44:45.462Z,7.20
2023-01-15T23:47:14.338Z,7.75
2023-01-15T23:49:42.615Z,7.90
2023-01-15T23:52:10.882Z,7.28
2023-01-15T23:54:40.485Z,8.05
2023-01-15T23:57:08.852Z,7.35
2023-01-15T23:59:37.256Z,7.13
